sensor_id;sensor_type;location;lat;lon;timestamp;pressure;altitude;pressure_sealevel;temperature;humidity
7441;BME280;29616;51.950;8.572;2022-12-20T00:01:05;100065.69;;;7.09;100.00
7441;BME280;29616;51.950;8.572;2022-12-20T00:03:33;100067.66;;;7.07;100.00
7441;BME280;29616;51.950;8.572;2022-12-20T00:06:02;100073.63;;;7.01;100.00
7441;BME280;29616;51.950;8.572;2022-12-20T00:08:30;100073.28;;;6.94;100.00
7441;BME280;29616;51.950;8.572;2022-12-20T00:11:00;100066.75;;;6.97;100.00
7441;BME280;29616;51.950;8.572;2022-12-20T00:13:28;100072.81;;;6.89;100.00
7441;BME280;29616;51.950;8.572;2022-12-20T00:16:04;100068.16;;;6.80;100.00
7441;BME280;29616;51.950;8.572;2022-12-20T00:18:33;100063.38;;;6.72;100.00
7441;BME280;29616;51.950;8.572;2022-12-20T00:21:02;100056.41;;;6.59;100.00
7441;BME280;29616;51.950;8.572;2022-12-20T00:23:31;100046.53;;;6.47;100.00
7441;BME280;29616;51.950;8.572;2022-12-20T00:26:03;100045.94;;;6.54;100.00
7441;BME280;29616;51.950;8.572;2022-12-20T00:28:32;100049.22;;;6.58;100.00
7441;BME280;29616;51.950;8.572;2022-12-20T00:31:02;100054.16;;;6.64;100.00
7441;BME280;29616;51.950;8.572;2022-12-20T00:33:33;100048.50;;;6.56;100.00
7441;BME280;29616;51.950;8.572;2022-12-20T00:36:02;100045.59;;;6.68;100.00
7441;BME280;29616;51.950;8.572;2022-12-20T00:38:31;100028.78;;;6.54;100.00
7441;BME280;29616;51.950;8.572;2022-12-20T00:41:02;100042.78;;;6.70;100.00
7441;BME280;29616;51.950;8.572;2022-12-20T00:43:31;100034.38;;;6.73;100.00
7441;BME280;29616;51.950;8.572;2022-12-20T00:46:00;100029.00;;;6.62;100.00
7441;BME280;29616;51.950;8.572;2022-12-20T00:48:29;100029.25;;;6.80;100.00
7441;BME280;29616;51.950;8.572;2022-12-20T00:50:58;100024.69;;;6.80;100.00
7441;BME280;29616;51.950;8.572;2022-12-20T00:53:27;100011.31;;;6.88;100.00
7441;BME280;29616;51.950;8.572;2022-12-20T00:55:55;100027.31;;;7.02;100.00
7441;BME280;29616;51.950;8.572;2022-12-20T00:58:25;100011.94;;;7.12;100.00
7441;BME280;29616;51.950;8.572;2022-12-20T01:00:56;100021.00;;;7.22;100.00
7441;BME280;29616;51.950;8.572;2022-12-20T01:03:25;99987.22;;;7.15;100.00
7441;BME280;29616;51.950;8.572;2022-12-20T01:05:56;100004.88;;;7.30;100.00
7441;BME280;29616;51.950;8.572;2022-12-20T01:08:25;100017.13;;;7.46;100.00
7441;BME280;29616;51.950;8.572;2022-12-20T01:10:58;100020.47;;;7.59;100.00
7441;BME280;29616;51.950;8.572;2022-12-20T01:13:28;100015.91;;;7.59;100.00
7441;BME280;29616;51.950;8.572;2022-12-20T01:16:02;100010.16;;;7.53;100.00
7441;BME280;29616;51.950;8.572;2022-12-20T01:18:31;100007.88;;;7.58;100.00
7441;BME280;29616;51.950;8.572;2022-12-20T01:21:01;99992.44;;;7.58;100.00
7441;BME280;29616;51.950;8.572;2022-12-20T01:23:29;99993.28;;;7.59;100.00
7441;BME280;29616;51.950;8.572;2022-12-20T01:25:58;100003.63;;;7.65;100.00
7441;BME280;29616;51.950;8.572;2022-12-20T01:28:27;99990.63;;;7.68;100.00
7441;BME280;29616;51.950;8.572;2022-12-20T01:30:56;100013.28;;;7.78;100.00
7441;BME280;29616;51.950;8.572;2022-12-20T01:33:24;99995.22;;;7.77;100.00
7441;BME280;29616;51.950;8.572;2022-12-20T01:35:56;99990.00;;;7.65;100.00
7441;BME280;29616;51.950;8.572;2022-12-20T01:38:25;99987.28;;;7.65;100.00
7441;BME280;29616;51.950;8.572;2022-12-20T01:40:54;99980.88;;;7.66;100.00
7441;BME280;29616;51.950;8.572;2022-12-20T01:43:23;99993.91;;;7.72;100.00
7441;BME280;29616;51.950;8.572;2022-12-20T01:45:53;99992.94;;;7.82;100.00
7441;BME280;29616;51.950;8.572;2022-12-20T01:48:23;100009.69;;;7.78;100.00
7441;BME280;29616;51.950;8.572;2022-12-20T01:50:52;99997.53;;;7.82;100.00
7441;BME280;29616;51.950;8.572;2022-12-20T01:53:21;100005.25;;;7.77;100.00
7441;BME280;29616;51.950;8.572;2022-12-20T01:55:50;100005.44;;;7.85;100.00
7441;BME280;29616;51.950;8.572;2022-12-20T01:58:18;99994.75;;;7.72;100.00
7441;BME280;29616;51.950;8.572;2022-12-20T02:00:46;100008.28;;;7.83;100.00
7441;BME280;29616;51.950;8.572;2022-12-20T02:03:17;100010.28;;;7.91;100.00
7441;BME280;29616;51.950;8.572;2022-12-20T02:05:45;99999.84;;;7.96;100.00
7441;BME280;29616;51.950;8.572;2022-12-20T02:08:14;99994.28;;;7.98;100.00
7441;BME280;29616;51.950;8.572;2022-12-20T02:11:01;99991.69;;;7.96;100.00
7441;BME280;29616;51.950;8.572;2022-12-20T02:13:36;99979.38;;;7.92;100.00
7441;BME280;29616;51.950;8.572;2022-12-20T02:16:11;99957.00;;;7.79;100.00
7441;BME280;29616;51.950;8.572;2022-12-20T02:18:44;99965.50;;;7.95;100.00
7441;BME280;29616;51.950;8.572;2022-12-20T02:21:22;99954.78;;;8.03;100.00
7441;BME280;29616;51.950;8.572;2022-12-20T02:24:12;99959.09;;;8.25;100.00
7441;BME280;29616;51.950;8.572;2022-12-20T02:30:06;99958.28;;;8.53;100.00
7441;BME280;29616;51.950;8.572;2022-12-20T02:32:38;99951.94;;;8.81;100.00
7441;BME280;29616;51.950;8.572;2022-12-20T02:35:09;99963.97;;;8.98;100.00
7441;BME280;29616;51.950;8.572;2022-12-20T02:37:45;99962.53;;;9.03;100.00
7441;BME280;29616;51.950;8.572;2022-12-20T02:40:15;99948.50;;;8.98;100.00
7441;BME280;29616;51.950;8.572;2022-12-20T02:42:44;99951.25;;;8.79;100.00
7441;BME280;29616;51.950;8.572;2022-12-20T02:45:15;99958.72;;;8.77;100.00
7441;BME280;29616;51.950;8.572;2022-12-20T02:47:48;99954.28;;;8.67;100.00
7441;BME280;29616;51.950;8.572;2022-12-20T02:50:22;99950.97;;;8.53;100.00
7441;BME280;29616;51.950;8.572;2022-12-20T02:52:52;99941.34;;;8.49;100.00
7441;BME280;29616;51.950;8.572;2022-12-20T02:55:29;99929.19;;;8.34;100.00
7441;BME280;29616;51.950;8.572;2022-12-20T02:58:02;99925.56;;;8.24;100.00
7441;BME280;29616;51.950;8.572;2022-12-20T03:00:37;99920.72;;;8.37;100.00
7441;BME280;29616;51.950;8.572;2022-12-20T03:03:07;99931.63;;;8.57;100.00
7441;BME280;29616;51.950;8.572;2022-12-20T03:05:53;99908.69;;;8.49;100.00
7441;BME280;29616;51.950;8.572;2022-12-20T03:08:22;99923.00;;;8.61;100.00
7441;BME280;29616;51.950;8.572;2022-12-20T03:10:52;99927.59;;;8.70;100.00
7441;BME280;29616;51.950;8.572;2022-12-20T03:13:21;99930.44;;;8.78;100.00
7441;BME280;29616;51.950;8.572;2022-12-20T03:16:01;99930.88;;;8.83;100.00
7441;BME280;29616;51.950;8.572;2022-12-20T03:18:29;99926.44;;;8.82;100.00
7441;BME280;29616;51.950;8.572;2022-12-20T03:20:57;99920.69;;;8.76;100.00
7441;BME280;29616;51.950;8.572;2022-12-20T03:23:26;99919.41;;;8.80;100.00
7441;BME280;29616;51.950;8.572;2022-12-20T03:25:54;99937.47;;;8.90;100.00
7441;BME280;29616;51.950;8.572;2022-12-20T03:28:51;99929.88;;;8.94;100.00
7441;BME280;29616;51.950;8.572;2022-12-20T03:31:25;99925.84;;;8.88;100.00
7441;BME280;29616;51.950;8.572;2022-12-20T03:33:54;99912.97;;;8.81;100.00
7441;BME280;29616;51.950;8.572;2022-12-20T03:36:22;99926.69;;;8.89;100.00
7441;BME280;29616;51.950;8.572;2022-12-20T03:38:55;99903.78;;;8.63;100.00
7441;BME280;29616;51.950;8.572;2022-12-20T03:41:24;99935.34;;;8.75;100.00
7441;BME280;29616;51.950;8.572;2022-12-20T03:43:53;99947.94;;;8.76;100.00
7441;BME280;29616;51.950;8.572;2022-12-20T03:46:22;99940.50;;;8.78;100.00
7441;BME280;29616;51.950;8.572;2022-12-20T03:48:52;99938.06;;;8.75;100.00
7441;BME280;29616;51.950;8.572;2022-12-20T03:51:21;99912.69;;;8.55;100.00
7441;BME280;29616;51.950;8.572;2022-12-20T03:53:50;99925.44;;;8.54;100.00
7441;BME280;29616;51.950;8.572;2022-12-20T03:56:20;99942.53;;;8.57;100.00
7441;BME280;29616;51.950;8.572;2022-12-20T03:58:48;99945.97;;;8.59;100.00
7441;BME280;29616;51.950;8.572;2022-12-20T04:01:21;99943.97;;;8.70;100.00
7441;BME280;29616;51.950;8.572;2022-12-20T04:03:50;99950.53;;;8.68;100.00
7441;BME280;29616;51.950;8.572;2022-12-20T04:06:20;99960.44;;;8.59;100.00
7441;BME280;29616;51.950;8.572;2022-12-20T04:08:50;99962.88;;;8.52;100.00
7441;BME280;29616;51.950;8.572;2022-12-20T04:11:25;99938.06;;;8.36;100.00
7441;BME280;29616;51.950;8.572;2022-12-20T04:14:04;99960.44;;;8.49;100.00
7441;BME280;29616;51.950;8.572;2022-12-20T04:16:33;99950.25;;;8.42;100.00
7441;BME280;29616;51.950;8.572;2022-12-20T04:19:02;99961.16;;;8.51;100.00
7441;BME280;29616;51.950;8.572;2022-12-20T04:21:36;99956.84;;;8.59;100.00
7441;BME280;29616;51.950;8.572;2022-12-20T04:24:05;99938.22;;;8.54;100.00
7441;BME280;29616;51.950;8.572;2022-12-20T04:26:46;99940.94;;;8.54;100.00
7441;BME280;29616;51.950;8.572;2022-12-20T04:29:15;99955.84;;;8.50;100.00
7441;BME280;29616;51.950;8.572;2022-12-20T04:31:45;99950.13;;;8.43;100.00
7441;BME280;29616;51.950;8.572;2022-12-20T04:34:13;99947.25;;;8.35;100.00
7441;BME280;29616;51.950;8.572;2022-12-20T04:36:43;99943.75;;;8.24;100.00
7441;BME280;29616;51.950;8.572;2022-12-20T04:39:18;99931.72;;;8.17;100.00
7441;BME280;29616;51.950;8.572;2022-12-20T04:42:05;99929.56;;;8.11;100.00
7441;BME280;29616;51.950;8.572;2022-12-20T04:44:33;99932.13;;;8.12;100.00
7441;BME280;29616;51.950;8.572;2022-12-20T04:47:03;99940.47;;;8.11;100.00
7441;BME280;29616;51.950;8.572;2022-12-20T04:49:31;99933.72;;;8.05;100.00
7441;BME280;29616;51.950;8.572;2022-12-20T04:52:01;99914.94;;;7.92;100.00
7441;BME280;29616;51.950;8.572;2022-12-20T04:54:44;99923.53;;;8.07;100.00
7441;BME280;29616;51.950;8.572;2022-12-20T04:57:16;99919.81;;;8.08;100.00
7441;BME280;29616;51.950;8.572;2022-12-20T04:59:44;99930.13;;;8.05;100.00
7441;BME280;29616;51.950;8.572;2022-12-20T05:02:13;99923.53;;;8.07;100.00
7441;BME280;29616;51.950;8.572;2022-12-20T05:04:55;99926.69;;;8.12;100.00
7441;BME280;29616;51.950;8.572;2022-12-20T05:07:25;99927.28;;;8.16;100.00
7441;BME280;29616;51.950;8.572;2022-12-20T05:09:55;99923.84;;;8.14;100.00
7441;BME280;29616;51.950;8.572;2022-12-20T05:12:23;99923.84;;;8.23;100.00
7441;BME280;29616;51.950;8.572;2022-12-20T05:14:55;99916.44;;;8.35;100.00
7441;BME280;29616;51.950;8.572;2022-12-20T05:17:23;99921.00;;;8.34;100.00
7441;BME280;29616;51.950;8.572;2022-12-20T05:19:52;99917.00;;;8.29;100.00
7441;BME280;29616;51.950;8.572;2022-12-20T05:22:20;99899.75;;;8.09;100.00
7441;BME280;29616;51.950;8.572;2022-12-20T05:25:11;99912.66;;;8.07;100.00
7441;BME280;29616;51.950;8.572;2022-12-20T05:28:01;99924.00;;;8.22;100.00
7441;BME280;29616;51.950;8.572;2022-12-20T05:30:33;99922.97;;;8.23;100.00
7441;BME280;29616;51.950;8.572;2022-12-20T05:33:02;99914.25;;;8.19;100.00
7441;BME280;29616;51.950;8.572;2022-12-20T05:35:31;99909.53;;;8.21;100.00
7441;BME280;29616;51.950;8.572;2022-12-20T05:38:10;99922.41;;;8.19;100.00
7441;BME280;29616;51.950;8.572;2022-12-20T05:40:40;99905.78;;;8.13;100.00
7441;BME280;29616;51.950;8.572;2022-12-20T05:43:10;99929.00;;;8.26;100.00
7441;BME280;29616;51.950;8.572;2022-12-20T05:45:45;99928.03;;;8.27;100.00
7441;BME280;29616;51.950;8.572;2022-12-20T05:48:16;99929.44;;;8.22;100.00
7441;BME280;29616;51.950;8.572;2022-12-20T05:50:46;99933.03;;;8.22;100.00
7441;BME280;29616;51.950;8.572;2022-12-20T05:53:23;99933.19;;;8.30;100.00
7441;BME280;29616;51.950;8.572;2022-12-20T05:55:57;99918.28;;;8.25;100.00
7441;BME280;29616;51.950;8.572;2022-12-20T05:58:32;99927.72;;;8.30;100.00
7441;BME280;29616;51.950;8.572;2022-12-20T06:01:05;99905.81;;;8.22;100.00
7441;BME280;29616;51.950;8.572;2022-12-20T06:03:36;99906.50;;;8.24;100.00
7441;BME280;29616;51.950;8.572;2022-12-20T06:06:12;99906.50;;;8.24;100.00
7441;BME280;29616;51.950;8.572;2022-12-20T06:08:44;99885.47;;;8.17;100.00
7441;BME280;29616;51.950;8.572;2022-12-20T06:11:19;99901.53;;;8.29;100.00
7441;BME280;29616;51.950;8.572;2022-12-20T06:14:00;99900.38;;;8.32;100.00
7441;BME280;29616;51.950;8.572;2022-12-20T06:16:28;99900.38;;;8.32;100.00
7441;BME280;29616;51.950;8.572;2022-12-20T06:18:57;99901.06;;;8.24;100.00
7441;BME280;29616;51.950;8.572;2022-12-20T06:21:26;99906.09;;;8.19;100.00
7441;BME280;29616;51.950;8.572;2022-12-20T06:23:55;99905.66;;;8.14;100.00
7441;BME280;29616;51.950;8.572;2022-12-20T06:26:24;99908.94;;;8.08;100.00
7441;BME280;29616;51.950;8.572;2022-12-20T06:28:53;99907.22;;;8.07;100.00
7441;BME280;29616;51.950;8.572;2022-12-20T06:31:30;99903.78;;;8.05;100.00
7441;BME280;29616;51.950;8.572;2022-12-20T06:33:58;99897.75;;;8.02;100.00
7441;BME280;29616;51.950;8.572;2022-12-20T06:36:31;99900.63;;;8.00;100.00
7441;BME280;29616;51.950;8.572;2022-12-20T06:39:00;99904.19;;;7.91;100.00
7441;BME280;29616;51.950;8.572;2022-12-20T06:41:39;99899.44;;;7.93;100.00
7441;BME280;29616;51.950;8.572;2022-12-20T06:44:07;99891.44;;;7.82;100.00
7441;BME280;29616;51.950;8.572;2022-12-20T06:46:36;99902.88;;;7.85;100.00
7441;BME280;29616;51.950;8.572;2022-12-20T06:49:04;99902.88;;;7.76;100.00
7441;BME280;29616;51.950;8.572;2022-12-20T06:51:32;99913.47;;;7.88;100.00
7441;BME280;29616;51.950;8.572;2022-12-20T06:54:01;99903.47;;;7.89;100.00
7441;BME280;29616;51.950;8.572;2022-12-20T06:56:32;99896.28;;;7.78;100.00
7441;BME280;29616;51.950;8.572;2022-12-20T06:59:10;99902.31;;;7.82;100.00
7441;BME280;29616;51.950;8.572;2022-12-20T07:01:38;99898.84;;;7.80;100.00
7441;BME280;29616;51.950;8.572;2022-12-20T07:04:06;99893.72;;;7.77;100.00
7441;BME280;29616;51.950;8.572;2022-12-20T07:06:34;99888.81;;;7.71;100.00
7441;BME280;29616;51.950;8.572;2022-12-20T07:09:03;99888.81;;;7.71;100.00
7441;BME280;29616;51.950;8.572;2022-12-20T07:11:31;99882.53;;;7.70;100.00
7441;BME280;29616;51.950;8.572;2022-12-20T07:13:59;99887.69;;;7.73;100.00
7441;BME280;29616;51.950;8.572;2022-12-20T07:16:29;99890.84;;;7.69;100.00
7441;BME280;29616;51.950;8.572;2022-12-20T07:18:58;99892.81;;;7.67;100.00
7441;BME280;29616;51.950;8.572;2022-12-20T07:21:26;99879.22;;;7.67;100.00
7441;BME280;29616;51.950;8.572;2022-12-20T07:23:55;99875.66;;;7.66;100.00
7441;BME280;29616;51.950;8.572;2022-12-20T07:26:23;99888.81;;;7.71;100.00
7441;BME280;29616;51.950;8.572;2022-12-20T07:28:52;99891.28;;;7.74;100.00
7441;BME280;29616;51.950;8.572;2022-12-20T07:31:20;99889.97;;;7.78;100.00
7441;BME280;29616;51.950;8.572;2022-12-20T07:33:49;99877.69;;;7.83;100.00
7441;BME280;29616;51.950;8.572;2022-12-20T07:36:18;99879.41;;;7.84;100.00
7441;BME280;29616;51.950;8.572;2022-12-20T07:38:46;99890.28;;;7.84;100.00
7441;BME280;29616;51.950;8.572;2022-12-20T07:41:16;99879.69;;;7.81;100.00
7441;BME280;29616;51.950;8.572;2022-12-20T07:43:44;99874.25;;;7.81;100.00
7441;BME280;29616;51.950;8.572;2022-12-20T07:46:13;99881.81;;;7.78;100.00
7441;BME280;29616;51.950;8.572;2022-12-20T07:48:43;99846.84;;;7.64;100.00
7441;BME280;29616;51.950;8.572;2022-12-20T07:51:14;99871.38;;;7.73;100.00
7441;BME280;29616;51.950;8.572;2022-12-20T07:53:44;99868.91;;;7.70;100.00
7441;BME280;29616;51.950;8.572;2022-12-20T07:56:13;99884.41;;;7.79;100.00
7441;BME280;29616;51.950;8.572;2022-12-20T07:58:42;99882.53;;;7.80;100.00
7441;BME280;29616;51.950;8.572;2022-12-20T08:01:11;99879.41;;;7.84;100.00
7441;BME280;29616;51.950;8.572;2022-12-20T08:03:41;99861.22;;;7.85;100.00
7441;BME280;29616;51.950;8.572;2022-12-20T08:06:11;99870.97;;;7.97;100.00
7441;BME280;29616;51.950;8.572;2022-12-20T08:08:43;99870.25;;;7.95;100.00
7441;BME280;29616;51.950;8.572;2022-12-20T08:11:13;99862.63;;;7.99;100.00
7441;BME280;29616;51.950;8.572;2022-12-20T08:13:41;99864.97;;;8.03;100.00
7441;BME280;29616;51.950;8.572;2022-12-20T08:16:13;99874.53;;;8.07;100.00
7441;BME280;29616;51.950;8.572;2022-12-20T08:18:41;99858.78;;;8.01;100.00
7441;BME280;29616;51.950;8.572;2022-12-20T08:21:10;99865.66;;;8.05;100.00
7441;BME280;29616;51.950;8.572;2022-12-20T08:23:39;99854.06;;;8.13;100.00
7441;BME280;29616;51.950;8.572;2022-12-20T08:26:09;99852.63;;;8.18;100.00
7441;BME280;29616;51.950;8.572;2022-12-20T08:28:37;99862.94;;;8.15;100.00
7441;BME280;29616;51.950;8.572;2022-12-20T08:31:07;99869.25;;;8.15;100.00
7441;BME280;29616;51.950;8.572;2022-12-20T08:33:36;99856.22;;;8.19;100.00
7441;BME280;29616;51.950;8.572;2022-12-20T08:36:06;99829.56;;;8.03;100.00
7441;BME280;29616;51.950;8.572;2022-12-20T08:38:38;99847.50;;;8.25;100.00
7441;BME280;29616;51.950;8.572;2022-12-20T08:41:09;99852.38;;;8.31;100.00
7441;BME280;29616;51.950;8.572;2022-12-20T08:43:38;99847.22;;;8.37;100.00
7441;BME280;29616;51.950;8.572;2022-12-20T08:46:08;99836.31;;;8.37;100.00
7441;BME280;29616;51.950;8.572;2022-12-20T08:48:37;99847.63;;;8.42;100.00
7441;BME280;29616;51.950;8.572;2022-12-20T08:51:07;99830.44;;;8.51;100.00
7441;BME280;29616;51.950;8.572;2022-12-20T08:53:36;99842.44;;;8.59;100.00
7441;BME280;29616;51.950;8.572;2022-12-20T08:56:05;99841.28;;;8.61;100.00
7441;BME280;29616;51.950;8.572;2022-12-20T08:58:36;99836.09;;;8.77;100.00
7441;BME280;29616;51.950;8.572;2022-12-20T09:01:06;99835.63;;;8.82;100.00
7441;BME280;29616;51.950;8.572;2022-12-20T09:03:34;99850.13;;;8.82;100.00
7441;BME280;29616;51.950;8.572;2022-12-20T09:06:04;99852.56;;;8.85;100.00
7441;BME280;29616;51.950;8.572;2022-12-20T09:08:34;99847.47;;;9.00;100.00
7441;BME280;29616;51.950;8.572;2022-12-20T09:11:05;99848.63;;;9.07;100.00
7441;BME280;29616;51.950;8.572;2022-12-20T09:13:35;99846.59;;;9.09;100.00
7441;BME280;29616;51.950;8.572;2022-12-20T09:16:14;99836.56;;;9.09;100.00
7441;BME280;29616;51.950;8.572;2022-12-20T09:18:42;99833.38;;;9.14;100.00
7441;BME280;29616;51.950;8.572;2022-12-20T09:21:11;99828.78;;;9.14;100.00
7441;BME280;29616;51.950;8.572;2022-12-20T09:23:41;99821.97;;;9.28;100.00
7441;BME280;29616;51.950;8.572;2022-12-20T09:26:10;99822.06;;;9.36;100.00
7441;BME280;29616;51.950;8.572;2022-12-20T09:28:40;99826.09;;;9.32;100.00
7441;BME280;29616;51.950;8.572;2022-12-20T09:31:09;99814.31;;;9.32;100.00
7441;BME280;29616;51.950;8.572;2022-12-20T09:33:38;99810.34;;;9.26;100.00
7441;BME280;29616;51.950;8.572;2022-12-20T09:36:09;99803.69;;;9.38;100.00
7441;BME280;29616;51.950;8.572;2022-12-20T09:38:38;99799.44;;;9.26;100.00
7441;BME280;29616;51.950;8.572;2022-12-20T09:41:07;99796.47;;;9.20;100.00
7441;BME280;29616;51.950;8.572;2022-12-20T09:43:49;99777.00;;;9.32;100.00
7441;BME280;29616;51.950;8.572;2022-12-20T09:46:18;99777.22;;;9.84;100.00
7441;BME280;29616;51.950;8.572;2022-12-20T09:48:46;99774.72;;;9.72;100.00
7441;BME280;29616;51.950;8.572;2022-12-20T09:51:19;99785.94;;;9.69;100.00
7441;BME280;29616;51.950;8.572;2022-12-20T09:53:54;99786.59;;;9.81;100.00
7441;BME280;29616;51.950;8.572;2022-12-20T09:56:30;99787.84;;;9.87;100.00
7441;BME280;29616;51.950;8.572;2022-12-20T09:59:02;99784.38;;;9.85;100.00
7441;BME280;29616;51.950;8.572;2022-12-20T10:01:31;99778.00;;;9.94;100.00
7441;BME280;29616;51.950;8.572;2022-12-20T10:04:09;99794.16;;;10.05;100.00
7441;BME280;29616;51.950;8.572;2022-12-20T10:06:45;99794.78;;;9.99;100.00
7441;BME280;29616;51.950;8.572;2022-12-20T10:09:23;99790.28;;;9.90;100.00
7441;BME280;29616;51.950;8.572;2022-12-20T10:12:00;99792.91;;;9.99;100.00
7441;BME280;29616;51.950;8.572;2022-12-20T10:14:44;99777.00;;;9.95;100.00
7441;BME280;29616;51.950;8.572;2022-12-20T10:17:21;99801.00;;;10.09;100.00
7441;BME280;29616;51.950;8.572;2022-12-20T10:20:04;99781.16;;;10.16;100.00
7441;BME280;29616;51.950;8.572;2022-12-20T10:22:36;99780.25;;;10.33;100.00
7441;BME280;29616;51.950;8.572;2022-12-20T10:25:14;99782.50;;;10.38;100.00
7441;BME280;29616;51.950;8.572;2022-12-20T10:27:43;99786.69;;;10.24;100.00
7441;BME280;29616;51.950;8.572;2022-12-20T10:30:15;99785.28;;;10.20;100.00
7441;BME280;29616;51.950;8.572;2022-12-20T10:32:45;99772.53;;;10.11;100.00
7441;BME280;29616;51.950;8.572;2022-12-20T10:35:26;99768.56;;;10.06;100.00
7441;BME280;29616;51.950;8.572;2022-12-20T10:38:02;99771.78;;;10.19;100.00
7441;BME280;29616;51.950;8.572;2022-12-20T10:40:36;99765.59;;;10.17;100.00
7441;BME280;29616;51.950;8.572;2022-12-20T10:43:25;99760.16;;;9.99;100.00
7441;BME280;29616;51.950;8.572;2022-12-20T10:45:56;99765.59;;;9.99;100.00
7441;BME280;29616;51.950;8.572;2022-12-20T10:48:28;99756.63;;;10.07;100.00
7441;BME280;29616;51.950;8.572;2022-12-20T10:50:59;99749.84;;;10.11;100.00
7441;BME280;29616;51.950;8.572;2022-12-20T10:53:28;99750.84;;;10.10;100.00
7441;BME280;29616;51.950;8.572;2022-12-20T10:56:11;99746.66;;;10.15;100.00
7441;BME280;29616;51.950;8.572;2022-12-20T10:58:40;99748.28;;;10.08;100.00
7441;BME280;29616;51.950;8.572;2022-12-20T11:01:14;99733.38;;;10.20;100.00
7441;BME280;29616;51.950;8.572;2022-12-20T11:03:56;99733.06;;;10.23;100.00
7441;BME280;29616;51.950;8.572;2022-12-20T11:06:26;99735.69;;;10.33;100.00
7441;BME280;29616;51.950;8.572;2022-12-20T11:09:23;99736.00;;;10.30;100.00
7441;BME280;29616;51.950;8.572;2022-12-20T11:12:03;99738.59;;;10.31;100.00
7441;BME280;29616;51.950;8.572;2022-12-20T11:14:33;99723.38;;;10.29;100.00
7441;BME280;29616;51.950;8.572;2022-12-20T11:17:17;99725.44;;;10.27;100.00
7441;BME280;29616;51.950;8.572;2022-12-20T11:22:41;99712.88;;;10.42;100.00
7441;BME280;29616;51.950;8.572;2022-12-20T11:25:22;99701.84;;;10.52;100.00
7441;BME280;29616;51.950;8.572;2022-12-20T11:28:03;99693.72;;;10.34;100.00
7441;BME280;29616;51.950;8.572;2022-12-20T11:30:41;99693.81;;;10.50;100.00
7441;BME280;29616;51.950;8.572;2022-12-20T11:33:24;99689.72;;;10.54;100.00
7441;BME280;29616;51.950;8.572;2022-12-20T11:35:59;99684.56;;;10.43;100.00
7441;BME280;29616;51.950;8.572;2022-12-20T11:38:36;99687.44;;;10.42;100.00
7441;BME280;29616;51.950;8.572;2022-12-20T11:41:12;99676.69;;;10.40;100.00
7441;BME280;29616;51.950;8.572;2022-12-20T11:43:48;99670.22;;;10.49;100.00
7441;BME280;29616;51.950;8.572;2022-12-20T11:46:49;99672.03;;;10.66;100.00
7441;BME280;29616;51.950;8.572;2022-12-20T11:49:32;99678.59;;;10.81;100.00
7441;BME280;29616;51.950;8.572;2022-12-20T11:52:08;99646.41;;;10.67;100.00
7441;BME280;29616;51.950;8.572;2022-12-20T11:54:38;99649.13;;;10.67;100.00
7441;BME280;29616;51.950;8.572;2022-12-20T11:57:10;99667.69;;;10.89;100.00
7441;BME280;29616;51.950;8.572;2022-12-20T11:59:43;99653.97;;;10.81;100.00
7441;BME280;29616;51.950;8.572;2022-12-20T12:02:14;99650.59;;;10.87;100.00
7441;BME280;29616;51.950;8.572;2022-12-20T12:04:53;99665.34;;;11.03;100.00
7441;BME280;29616;51.950;8.572;2022-12-20T12:07:25;99655.47;;;11.10;100.00
7441;BME280;29616;51.950;8.572;2022-12-20T12:09:58;99654.09;;;11.14;100.00
7441;BME280;29616;51.950;8.572;2022-12-20T12:12:31;99625.03;;;11.21;100.00
7441;BME280;29616;51.950;8.572;2022-12-20T12:15:04;99633.59;;;11.26;100.00
7441;BME280;29616;51.950;8.572;2022-12-20T12:17:44;99636.31;;;11.26;100.00
7441;BME280;29616;51.950;8.572;2022-12-20T12:20:19;99633.25;;;11.21;100.00
7441;BME280;29616;51.950;8.572;2022-12-20T12:22:50;99637.00;;;11.20;100.00
7441;BME280;29616;51.950;8.572;2022-12-20T12:25:20;99638.72;;;11.21;100.00
7441;BME280;29616;51.950;8.572;2022-12-20T12:27:48;99623.66;;;11.09;100.00
7441;BME280;29616;51.950;8.572;2022-12-20T12:30:17;99634.25;;;11.12;100.00
7441;BME280;29616;51.950;8.572;2022-12-20T12:32:46;99628.59;;;11.05;100.00
7441;BME280;29616;51.950;8.572;2022-12-20T12:35:24;99630.00;;;11.09;100.00
7441;BME280;29616;51.950;8.572;2022-12-20T12:38:14;99631.69;;;11.10;100.00
7441;BME280;29616;51.950;8.572;2022-12-20T12:40:54;99626.22;;;11.10;100.00
7441;BME280;29616;51.950;8.572;2022-12-20T12:43:47;99621.28;;;11.14;100.00
7441;BME280;29616;51.950;8.572;2022-12-20T12:46:17;99620.06;;;11.08;100.00
7441;BME280;29616;51.950;8.572;2022-12-20T12:48:50;99617.84;;;11.12;100.00
7441;BME280;29616;51.950;8.572;2022-12-20T12:51:26;99592.56;;;11.10;100.00
7441;BME280;29616;51.950;8.572;2022-12-20T12:54:02;99595.28;;;11.18;100.00
7441;BME280;29616;51.950;8.572;2022-12-20T12:56:38;99616.00;;;11.28;100.00
7441;BME280;29616;51.950;8.572;2022-12-20T12:59:22;99612.44;;;11.36;100.00
7441;BME280;29616;51.950;8.572;2022-12-20T13:01:52;99612.09;;;11.39;100.00
7441;BME280;29616;51.950;8.572;2022-12-20T13:04:23;99612.06;;;11.47;100.00
7441;BME280;29616;51.950;8.572;2022-12-20T13:07:19;99617.38;;;11.40;100.00
7441;BME280;29616;51.950;8.572;2022-12-20T13:09:51;99618.91;;;11.35;100.00
7441;BME280;29616;51.950;8.572;2022-12-20T13:17:49;99617.88;;;11.28;100.00
7441;BME280;29616;51.950;8.572;2022-12-20T13:20:19;99609.34;;;11.31;100.00
7441;BME280;29616;51.950;8.572;2022-12-20T13:23:13;99617.53;;;11.23;100.00
7441;BME280;29616;51.950;8.572;2022-12-20T13:25:44;99621.81;;;11.17;100.00
7441;BME280;29616;51.950;8.572;2022-12-20T13:28:43;99611.69;;;11.18;100.00
7441;BME280;29616;51.950;8.572;2022-12-20T13:34:22;99615.81;;;11.22;100.00
7441;BME280;29616;51.950;8.572;2022-12-20T13:36:57;99620.28;;;11.23;100.00
7441;BME280;29616;51.950;8.572;2022-12-20T13:39:31;99608.47;;;11.22;100.00
7441;BME280;29616;51.950;8.572;2022-12-20T13:42:15;99615.31;;;11.34;100.00
7441;BME280;29616;51.950;8.572;2022-12-20T13:44:47;99615.81;;;11.30;100.00
7441;BME280;29616;51.950;8.572;2022-12-20T13:52:50;99612.59;;;11.50;100.00
7441;BME280;29616;51.950;8.572;2022-12-20T13:55:42;99614.69;;;11.81;100.00